TimeEST,TemperatureF,Dew PointF,Humidity,Sea Level PressureIn,VisibilityMPH,Wind Direction,Wind SpeedMPH,Gust SpeedMPH,PrecipitationIn,Events,Conditions,WindDirDegrees,DateUTC
12:53 AM,27.0,26.1,96,30.25,10.0,Calm,Calm,-,N/A,,Mostly Cloudy,0,2013-02-26 05:53:00
1:53 AM,26.1,24.1,92,30.24,10.0,Calm,Calm,-,N/A,,Mostly Cloudy,0,2013-02-26 06:53:00
2:53 AM,23.0,23.0,100,30.25,6.0,Calm,Calm,-,N/A,,Clear,0,2013-02-26 07:53:00
3:53 AM,24.1,21.9,91,30.28,10.0,Calm,Calm,-,N/A,,Overcast,0,2013-02-26 08:53:00
4:53 AM,25.0,23.0,92,30.29,10.0,Calm,Calm,-,N/A,,Overcast,0,2013-02-26 09:53:00
5:53 AM,25.0,24.1,96,30.30,10.0,Calm,Calm,-,N/A,,Overcast,0,2013-02-26 10:53:00
6:53 AM,25.0,24.1,96,30.30,10.0,Calm,Calm,-,N/A,,Scattered Clouds,0,2013-02-26 11:53:00
7:53 AM,35.1,32.0,89,30.32,10.0,NE,3.5,-,N/A,,Clear,40,2013-02-26 12:53:00
8:53 AM,39.0,26.1,60,30.33,10.0,ENE,3.5,-,N/A,,Clear,70,2013-02-26 13:53:00
9:53 AM,41.0,25.0,53,30.32,10.0,East,10.4,-,N/A,,Clear,80,2013-02-26 14:53:00
10:53 AM,42.1,24.1,49,30.33,10.0,East,11.5,-,N/A,,Clear,80,2013-02-26 15:53:00
11:53 AM,43.0,25.0,49,30.32,10.0,ENE,12.7,-,N/A,,Clear,70,2013-02-26 16:53:00
12:53 PM,43.0,24.1,47,30.31,10.0,East,9.2,-,N/A,,Clear,90,2013-02-26 17:53:00
1:53 PM,42.1,24.1,49,30.29,10.0,East,12.7,-,N/A,,Clear,80,2013-02-26 18:53:00
2:53 PM,41.0,26.1,55,30.28,10.0,ENE,12.7,-,N/A,,Clear,70,2013-02-26 19:53:00
3:53 PM,39.9,26.1,58,30.28,10.0,East,9.2,-,N/A,,Clear,80,2013-02-26 20:53:00
4:53 PM,37.9,28.0,68,30.27,10.0,ESE,5.8,-,N/A,,Clear,110,2013-02-26 21:53:00
5:53 PM,36.0,28.0,73,30.26,10.0,East,5.8,-,N/A,,Clear,80,2013-02-26 22:53:00
6:53 PM,36.0,30.0,79,30.24,10.0,East,6.9,-,N/A,,Clear,90,2013-02-26 23:53:00
7:53 PM,36.0,30.0,79,30.23,10.0,East,5.8,-,N/A,,Clear,100,2013-02-27 00:53:00
8:53 PM,37.0,30.9,79,30.21,10.0,East,8.1,-,N/A,,Partly Cloudy,90,2013-02-27 01:53:00
9:27 PM,37.4,32.0,81,30.19,10.0,East,10.4,-,N/A,,Mostly Cloudy,90,2013-02-27 02:27:00
9:53 PM,37.9,33.1,83,30.19,10.0,East,11.5,-,N/A,,Mostly Cloudy,90,2013-02-27 02:53:00
10:53 PM,39.0,35.1,86,30.14,10.0,East,13.8,-,N/A,,Overcast,90,2013-02-27 03:53:00
11:53 PM,39.9,34.0,79,30.12,10.0,East,16.1,21.9,N/A,,Overcast,90,2013-02-27 04:53:00